Time;durP1;ratioP1;P1;durP2;ratioP2;P2;SDS_P1;SDS_P2;PMS_P1;PMS_P2;Temp;Humidity;BMP_temperature;BMP_pressure;BME280_temperature;BME280_humidity;BME280_pressure;Samples;Min_cycle;Max_cycle;Signal;HPM_P1;HPM_P2
2021/01/17 00:00:25;;;;;;;22.30;11.60;;;-2.40;99.90;;;;;;5033840;28;20159;-71
2021/01/17 00:02:52;;;;;;;33.85;17.45;;;-2.40;99.90;;;;;;5037055;28;20076;-71
2021/01/17 00:05:24;;;;;;;37.88;17.85;;;-2.40;99.90;;;;;;5038301;28;20103;-71
2021/01/17 00:07:51;;;;;;;33.30;16.05;;;-2.40;99.90;;;;;;5029097;28;20053;-71
2021/01/17 00:10:23;;;;;;;33.85;17.40;;;-2.40;99.90;;;;;;5041262;28;20045;-71
2021/01/17 00:12:50;;;;;;;29.20;14.55;;;-2.40;99.90;;;;;;5025064;28;20497;-71
2021/01/17 00:15:18;;;;;;;29.15;13.73;;;-2.40;99.90;;;;;;5033615;28;20045;-70
2021/01/17 00:17:45;;;;;;;26.73;12.70;;;-2.40;99.90;;;;;;5048966;28;20048;-70
2021/01/17 00:20:12;;;;;;;40.90;15.80;;;-2.30;99.90;;;;;;5048274;28;20133;-71
2021/01/17 00:22:39;;;;;;;29.30;15.73;;;-2.20;99.90;;;;;;5046651;28;20506;-71
2021/01/17 00:25:08;;;;;;;29.05;14.88;;;-2.30;99.90;;;;;;5040181;28;20044;-71
2021/01/17 00:27:34;;;;;;;30.73;16.02;;;-2.30;99.90;;;;;;5059232;28;20291;-71
2021/01/17 00:30:03;;;;;;;35.70;16.98;;;-2.30;99.90;;;;;;5037644;28;20045;-71
2021/01/17 00:32:29;;;;;;;26.27;12.48;;;-2.20;99.90;;;;;;5045392;28;20175;-71
2021/01/17 00:34:56;;;;;;;30.55;15.30;;;-2.20;99.90;;;;;;5045877;28;20077;-71
2021/01/17 00:37:22;;;;;;;30.30;16.67;;;-2.30;99.90;;;;;;5048349;28;20119;-70
2021/01/17 00:39:49;;;;;;;30.45;14.70;;;-2.20;99.90;;;;;;5042462;28;20103;-70
2021/01/17 00:42:16;;;;;;;40.22;18.58;;;-2.30;99.90;;;;;;5045961;28;20057;-71
2021/01/17 00:44:44;;;;;;;28.15;15.35;;;-2.20;99.90;;;;;;5048597;28;20506;-71
2021/01/17 00:47:11;;;;;;;31.98;14.90;;;-2.20;99.90;;;;;;5057462;28;20127;-71
2021/01/17 00:49:38;;;;;;;30.80;15.75;;;-2.20;99.90;;;;;;5051840;28;20044;-71
2021/01/17 00:52:05;;;;;;;33.63;17.08;;;-2.10;99.90;;;;;;5047357;28;20187;-72
2021/01/17 00:54:31;;;;;;;31.08;15.65;;;-2.10;99.90;;;;;;5048408;28;20053;-71
2021/01/17 00:57:04;;;;;;;31.65;16.38;;;-2.10;99.90;;;;;;5038419;28;20124;-71
2021/01/17 00:59:30;;;;;;;29.53;15.30;;;-2.10;99.90;;;;;;5044842;28;20215;-71
2021/01/17 01:01:56;;;;;;;29.58;15.77;;;-2.10;99.90;;;;;;4991359;28;20387;-70
2021/01/17 01:04:23;;;;;;;33.70;16.38;;;-2.00;99.90;;;;;;5032538;28;20221;-70
2021/01/17 01:06:50;;;;;;;27.60;14.45;;;-2.00;99.90;;;;;;5038704;28;20088;-71
2021/01/17 01:09:18;;;;;;;32.85;15.57;;;-2.00;99.90;;;;;;5034619;28;20492;-71
2021/01/17 01:11:44;;;;;;;30.17;16.23;;;-2.00;99.90;;;;;;5043303;28;20077;-71
2021/01/17 01:14:11;;;;;;;27.77;15.48;;;-2.10;99.90;;;;;;5022320;28;20045;-71
2021/01/17 01:16:37;;;;;;;28.48;14.82;;;-2.10;99.90;;;;;;5034880;28;20107;-70
2021/01/17 01:19:04;;;;;;;30.67;16.30;;;-2.10;99.90;;;;;;5039403;28;20053;-71
2021/01/17 01:21:32;;;;;;;32.40;16.65;;;-2.10;99.90;;;;;;5032049;28;20049;-71
2021/01/17 01:23:59;;;;;;;28.30;14.55;;;-2.10;99.90;;;;;;5030643;28;20562;-71
2021/01/17 01:26:27;;;;;;;28.20;15.75;;;-2.00;99.90;;;;;;5042967;28;20525;-71
2021/01/17 01:28:55;;;;;;;31.23;16.20;;;-2.00;99.90;;;;;;5032812;28;20081;-71
2021/01/17 01:31:25;;;;;;;27.40;13.75;;;-2.00;99.90;;;;;;5042119;28;20045;-71
2021/01/17 01:33:53;;;;;;;28.63;14.35;;;-2.00;99.90;;;;;;5043709;28;20041;-70
2021/01/17 01:36:21;;;;;;;31.02;16.52;;;-2.00;99.90;;;;;;5032711;28;20137;-71
2021/01/17 01:38:48;;;;;;;30.00;14.20;;;-2.10;99.90;;;;;;5031934;28;20076;-71
2021/01/17 01:41:15;;;;;;;30.05;15.55;;;-2.10;99.90;;;;;;5041688;28;20076;-71
2021/01/17 01:43:43;;;;;;;30.08;15.25;;;-2.10;99.90;;;;;;5033583;28;20054;-71
2021/01/17 01:46:15;;;;;;;29.85;15.27;;;-2.00;99.90;;;;;;5035166;28;20047;-70
2021/01/17 01:48:46;;;;;;;26.88;13.00;;;-2.00;99.90;;;;;;5034466;28;20045;-71
2021/01/17 01:51:15;;;;;;;32.80;16.35;;;-2.10;99.90;;;;;;5036193;28;20125;-71
2021/01/17 01:53:42;;;;;;;26.83;13.85;;;-2.10;99.90;;;;;;5029448;28;20187;-71
2021/01/17 01:56:09;;;;;;;36.42;18.50;;;-2.10;99.90;;;;;;5031737;28;20041;-71
2021/01/17 01:58:38;;;;;;;32.45;16.80;;;-2.00;99.90;;;;;;5031246;28;20088;-71
2021/01/17 02:01:06;;;;;;;31.88;15.88;;;-2.00;99.90;;;;;;5034837;28;20041;-71
2021/01/17 02:03:33;;;;;;;32.33;16.55;;;-1.90;99.90;;;;;;5036602;28;20231;-71
2021/01/17 02:06:10;;;;;;;29.98;16.50;;;-2.00;99.90;;;;;;5036707;28;20071;-71
2021/01/17 02:09:11;;;;;;;27.33;14.93;;;-2.00;99.90;;;;;;5044361;28;20137;-71
2021/01/17 02:12:01;;;;;;;32.90;14.85;;;-2.00;99.90;;;;;;5041892;28;20042;-71
2021/01/17 02:14:36;;;;;;;31.17;13.93;;;-1.90;99.90;;;;;;5045436;28;20450;-71
2021/01/17 02:17:09;;;;;;;32.28;15.98;;;-1.90;99.90;;;;;;5034350;28;20099;-71
2021/01/17 02:19:37;;;;;;;31.70;16.45;;;-2.00;99.90;;;;;;5030504;28;20528;-71
2021/01/17 02:22:05;;;;;;;33.50;16.20;;;-2.10;99.90;;;;;;5035002;28;20227;-71
2021/01/17 02:24:32;;;;;;;28.80;14.55;;;-2.00;99.90;;;;;;5037481;28;20130;-71
2021/01/17 02:27:00;;;;;;;27.90;14.57;;;-2.00;99.90;;;;;;5041662;28;20110;-71
2021/01/17 02:29:28;;;;;;;31.23;16.45;;;-2.00;99.90;;;;;;5042569;28;20124;-71
2021/01/17 02:32:00;;;;;;;34.60;17.48;;;-2.10;99.90;;;;;;5031775;28;20111;-71
2021/01/17 02:34:30;;;;;;;31.15;15.65;;;-2.00;99.90;;;;;;5059952;28;20139;-71
2021/01/17 02:37:15;;;;;;;32.42;16.55;;;-2.00;99.90;;;;;;5040334;28;20041;-71
2021/01/17 02:39:51;;;;;;;38.75;17.52;;;-2.00;99.90;;;;;;5042636;28;20121;-71
2021/01/17 02:42:18;;;;;;;33.33;17.70;;;-2.10;99.90;;;;;;5033376;28;20045;-71
2021/01/17 02:44:46;;;;;;;31.55;16.42;;;-2.10;99.90;;;;;;5034834;28;20088;-71
2021/01/17 02:47:13;;;;;;;33.40;16.92;;;-2.10;99.90;;;;;;5030653;28;20530;-71
2021/01/17 02:49:39;;;;;;;28.00;14.07;;;-2.10;99.90;;;;;;5034046;28;20068;-71
2021/01/17 02:52:07;;;;;;;35.63;18.00;;;-2.10;99.90;;;;;;5030485;28;20045;-71
2021/01/17 02:54:35;;;;;;;31.92;16.15;;;-2.00;99.90;;;;;;5028628;28;20503;-71
2021/01/17 02:57:04;;;;;;;33.28;16.10;;;-2.10;99.90;;;;;;5043161;28;20081;-71
2021/01/17 02:59:49;;;;;;;33.22;17.85;;;-2.00;99.90;;;;;;5034015;28;20507;-71
2021/01/17 03:02:21;;;;;;;35.10;16.63;;;-2.00;99.90;;;;;;5044852;28;20132;-71
2021/01/17 03:04:55;;;;;;;31.95;15.68;;;-1.90;99.90;;;;;;5035156;28;20066;-71
2021/01/17 03:07:23;;;;;;;28.25;13.73;;;-1.90;99.90;;;;;;5032777;28;20049;-71
2021/01/17 03:09:49;;;;;;;33.40;17.08;;;-1.90;99.90;;;;;;5047613;28;20543;-71
2021/01/17 03:12:16;;;;;;;27.23;15.52;;;-1.90;99.90;;;;;;5031239;28;20141;-71
2021/01/17 03:14:45;;;;;;;28.05;15.77;;;-1.90;99.90;;;;;;5047753;28;20049;-71
2021/01/17 03:17:12;;;;;;;30.75;15.85;;;-1.90;99.90;;;;;;5044587;28;20042;-71
2021/01/17 03:19:38;;;;;;;29.42;16.23;;;-1.90;99.90;;;;;;5033329;28;20094;-71
2021/01/17 03:22:05;;;;;;;33.80;17.65;;;-1.90;99.90;;;;;;5044338;28;20072;-71
2021/01/17 03:24:31;;;;;;;30.25;15.95;;;-1.90;99.90;;;;;;5046856;28;20139;-71
2021/01/17 03:26:58;;;;;;;34.47;18.55;;;-1.90;99.90;;;;;;5040769;28;20513;-71
2021/01/17 03:29:24;;;;;;;31.70;17.70;;;-1.90;99.90;;;;;;5040526;28;20166;-72
2021/01/17 03:31:51;;;;;;;31.80;16.85;;;-1.80;99.90;;;;;;5045927;28;20132;-71
2021/01/17 03:34:18;;;;;;;30.92;17.98;;;-1.80;99.90;;;;;;5045842;28;20132;-71
2021/01/17 03:36:44;;;;;;;33.33;16.90;;;-1.90;99.90;;;;;;5031775;28;20144;-71
2021/01/17 03:39:11;;;;;;;34.65;17.55;;;-1.90;99.90;;;;;;5038971;28;20056;-71
2021/01/17 03:41:37;;;;;;;35.00;18.33;;;-1.80;99.90;;;;;;5029402;28;20085;-71
2021/01/17 03:44:04;;;;;;;36.40;17.67;;;-1.80;99.90;;;;;;5028969;28;20115;-71
2021/01/17 03:46:31;;;;;;;30.85;16.13;;;-1.80;99.90;;;;;;5028640;28;20128;-71
2021/01/17 03:48:58;;;;;;;32.30;17.50;;;-1.90;99.90;;;;;;5032130;28;20103;-71
2021/01/17 03:51:24;;;;;;;37.38;18.55;;;-2.00;99.90;;;;;;5047235;28;20103;-71
2021/01/17 03:53:51;;;;;;;32.65;16.50;;;-1.90;99.90;;;;;;5037729;28;20060;-71
2021/01/17 03:56:17;;;;;;;31.85;16.70;;;-1.90;99.90;;;;;;5063966;28;20498;-71
2021/01/17 03:58:44;;;;;;;35.28;17.80;;;-1.90;99.90;;;;;;5037698;28;20132;-71
2021/01/17 04:01:11;;;;;;;31.08;16.52;;;-1.90;99.90;;;;;;5042693;28;20079;-71
2021/01/17 04:03:38;;;;;;;32.05;16.30;;;-1.90;99.90;;;;;;5046114;28;20049;-72
2021/01/17 04:06:05;;;;;;;34.40;16.58;;;-1.90;99.90;;;;;;5031756;28;20437;-71
2021/01/17 04:08:31;;;;;;;36.03;19.15;;;-2.00;99.90;;;;;;5041966;28;20072;-71
2021/01/17 04:10:58;;;;;;;34.58;17.35;;;-2.00;99.90;;;;;;5034971;28;20157;-71
2021/01/17 04:13:24;;;;;;;33.28;17.55;;;-2.00;99.90;;;;;;5032719;28;20140;-71
2021/01/17 04:15:51;;;;;;;36.95;18.88;;;-2.00;99.90;;;;;;5039505;28;20096;-71
2021/01/17 04:18:18;;;;;;;41.22;19.80;;;-1.90;99.90;;;;;;5046784;28;20052;-71
2021/01/17 04:20:44;;;;;;;29.85;15.48;;;-1.90;99.90;;;;;;5035778;28;20147;-71
2021/01/17 04:23:10;;;;;;;33.35;18.23;;;-1.90;99.90;;;;;;5052984;28;20421;-72
2021/01/17 04:25:37;;;;;;;32.47;16.30;;;-1.90;99.90;;;;;;5038274;28;20124;-71
2021/01/17 04:28:08;;;;;;;39.38;20.17;;;-1.90;99.90;;;;;;5048741;28;20045;-71
2021/01/17 04:30:34;;;;;;;35.03;17.95;;;-1.90;99.90;;;;;;5044516;28;20084;-71
2021/01/17 04:33:01;;;;;;;39.42;20.45;;;-1.90;99.90;;;;;;5050597;28;20124;-72
2021/01/17 04:35:27;;;;;;;34.90;17.90;;;-1.70;99.90;;;;;;5050526;28;20339;-71
2021/01/17 04:37:59;;;;;;;36.00;18.10;;;-1.80;99.90;;;;;;5036238;28;20129;-70
2021/01/17 04:40:29;;;;;;;39.55;19.10;;;-1.80;99.90;;;;;;5056539;28;20496;-72
2021/01/17 04:43:13;;;;;;;33.35;17.42;;;-1.80;99.90;;;;;;5038069;28;20053;-71
2021/01/17 04:45:40;;;;;;;41.20;18.67;;;-1.90;99.90;;;;;;5032480;28;20123;-71
2021/01/17 04:48:07;;;;;;;33.72;16.05;;;-1.90;99.90;;;;;;5048334;28;20045;-71
2021/01/17 04:50:34;;;;;;;40.22;19.50;;;-1.90;99.90;;;;;;5045974;28;20479;-71
2021/01/17 04:53:04;;;;;;;36.63;19.10;;;-1.90;99.90;;;;;;5036994;28;20140;-71
2021/01/17 04:55:34;;;;;;;38.10;18.98;;;-1.80;99.90;;;;;;5042565;28;20428;-71
2021/01/17 04:58:05;;;;;;;35.30;17.88;;;-1.80;99.90;;;;;;5049342;28;20052;-71
2021/01/17 05:00:33;;;;;;;37.08;18.65;;;-1.80;99.90;;;;;;5046493;28;20045;-71
2021/01/17 05:03:29;;;;;;;36.50;18.52;;;-1.80;99.90;;;;;;5033339;28;20120;-71
2021/01/17 05:06:14;;;;;;;37.83;19.50;;;-1.80;99.90;;;;;;5041019;28;20460;-71
2021/01/17 05:08:45;;;;;;;41.53;20.13;;;-1.80;99.90;;;;;;5031534;28;20068;-71
2021/01/17 05:11:40;;;;;;;37.13;17.55;;;-1.80;99.90;;;;;;5033975;28;20053;-71
2021/01/17 05:14:14;;;;;;;41.92;19.05;;;-1.80;99.90;;;;;;5057742;28;20045;-71
2021/01/17 05:16:44;;;;;;;33.10;18.33;;;-1.80;99.90;;;;;;5039126;28;20053;-71
2021/01/17 05:19:11;;;;;;;36.53;17.95;;;-1.80;99.90;;;;;;5046670;28;20053;-72
2021/01/17 05:21:40;;;;;;;33.85;17.52;;;-1.80;99.90;;;;;;5032953;28;20056;-76
2021/01/17 05:24:12;;;;;;;34.08;17.95;;;-1.80;99.90;;;;;;5031650;28;20054;-75
2021/01/17 05:26:53;;;;;;;39.65;20.30;;;-1.80;99.90;;;;;;5035692;28;20124;-75
2021/01/17 05:29:21;;;;;;;35.00;17.73;;;-1.80;99.90;;;;;;5049762;28;20128;-76
2021/01/17 05:32:02;;;;;;;34.28;18.45;;;-1.70;99.90;;;;;;5053685;28;20047;-76
2021/01/17 05:34:30;;;;;;;40.13;18.85;;;-1.70;99.90;;;;;;5043247;28;21242;-76
2021/01/17 05:37:04;;;;;;;40.83;20.67;;;-1.60;99.90;;;;;;5030409;28;20072;-75
2021/01/17 05:39:52;;;;;;;36.75;19.90;;;-1.70;99.90;;;;;;5031907;28;20113;-75
2021/01/17 05:42:42;;;;;;;42.95;21.15;;;-1.70;99.90;;;;;;5042514;28;20099;-75
2021/01/17 05:45:20;;;;;;;33.83;18.33;;;-1.70;99.90;;;;;;5045227;28;20049;-75
2021/01/17 05:47:57;;;;;;;40.35;19.25;;;-1.60;99.90;;;;;;5032014;28;20095;-75
2021/01/17 05:50:25;;;;;;;34.13;18.08;;;-1.70;99.90;;;;;;5019200;28;20085;-75
2021/01/17 05:53:03;;;;;;;34.42;18.10;;;-1.60;99.90;;;;;;5044224;28;20041;-75
2021/01/17 05:55:34;;;;;;;40.47;19.88;;;-1.50;99.90;;;;;;5031571;28;20108;-75
2021/01/17 05:58:30;;;;;;;38.35;19.52;;;-1.40;99.90;;;;;;5030825;28;20401;-75
2021/01/17 06:00:58;;;;;;;33.80;17.02;;;-1.40;99.90;;;;;;5034737;28;20115;-76
2021/01/17 06:03:32;;;;;;;30.85;16.92;;;-1.40;99.90;;;;;;5031886;28;20399;-75
2021/01/17 06:06:06;;;;;;;33.58;18.00;;;-1.40;99.90;;;;;;5041330;28;20061;-76
2021/01/17 06:08:34;;;;;;;36.70;18.83;;;-1.40;99.90;;;;;;5030552;28;20135;-75
2021/01/17 06:11:11;;;;;;;44.97;21.58;;;-1.40;99.90;;;;;;5036280;28;20084;-75
2021/01/17 06:13:42;;;;;;;33.90;17.77;;;-1.40;99.90;;;;;;5041975;28;20444;-75
2021/01/17 06:16:24;;;;;;;33.67;17.17;;;-1.40;99.90;;;;;;5042078;28;20041;-76
2021/01/17 06:18:58;;;;;;;38.47;19.17;;;-1.50;99.90;;;;;;5037893;28;20041;-76
2021/01/17 06:21:26;;;;;;;37.45;19.30;;;-1.40;99.90;;;;;;5045196;28;20049;-75
2021/01/17 06:24:04;;;;;;;39.35;19.73;;;-1.40;99.90;;;;;;5029224;28;20079;-75
2021/01/17 06:26:33;;;;;;;41.08;19.23;;;-1.40;99.90;;;;;;5039711;28;20105;-75
2021/01/17 06:29:01;;;;;;;38.30;19.92;;;-1.40;99.90;;;;;;5038481;28;20060;-75
2021/01/17 06:31:29;;;;;;;39.05;19.63;;;-1.40;99.90;;;;;;5032865;28;20077;-75
2021/01/17 06:34:11;;;;;;;37.60;18.90;;;-1.40;99.90;;;;;;5044878;28;20045;-75
2021/01/17 06:36:42;;;;;;;38.10;19.25;;;-1.30;99.90;;;;;;5030117;28;20362;-75
2021/01/17 06:39:22;;;;;;;41.97;19.85;;;-1.30;99.90;;;;;;5029760;28;20045;-75
2021/01/17 06:41:54;;;;;;;34.45;17.48;;;-1.30;99.90;;;;;;5031697;28;20137;-75
2021/01/17 06:44:28;;;;;;;39.33;18.20;;;-1.30;99.90;;;;;;5040120;28;20468;-75
2021/01/17 06:46:55;;;;;;;43.03;19.98;;;-1.20;99.90;;;;;;5038020;28;20226;-75
2021/01/17 06:49:27;;;;;;;41.00;19.33;;;-1.30;99.90;;;;;;5034278;28;20072;-75
2021/01/17 06:51:55;;;;;;;38.92;19.55;;;-1.30;99.90;;;;;;5033682;28;20077;-75
2021/01/17 06:54:30;;;;;;;39.15;20.05;;;-1.30;99.90;;;;;;5050024;28;20492;-75
2021/01/17 06:56:59;;;;;;;39.30;17.80;;;-1.20;99.90;;;;;;5041179;28;20120;-75
2021/01/17 06:59:31;;;;;;;37.05;18.25;;;-1.20;99.90;;;;;;5047405;28;20092;-75
2021/01/17 07:02:13;;;;;;;39.90;19.15;;;-1.20;99.90;;;;;;5040384;28;20103;-75
2021/01/17 07:04:48;;;;;;;38.72;17.95;;;-1.10;99.90;;;;;;5028964;28;20128;-75
2021/01/17 07:07:36;;;;;;;38.00;19.33;;;-1.20;99.90;;;;;;5060091;28;20391;-75
2021/01/17 07:10:09;;;;;;;40.17;20.55;;;-1.20;99.90;;;;;;5041625;28;20204;-75
2021/01/17 07:12:59;;;;;;;38.08;18.73;;;-1.20;99.90;;;;;;5039410;28;20131;-75
2021/01/17 07:15:31;;;;;;;37.70;18.92;;;-1.20;99.90;;;;;;5047467;28;20135;-75
2021/01/17 07:18:07;;;;;;;34.50;18.83;;;-1.20;99.90;;;;;;5034905;28;20583;-75
2021/01/17 07:20:36;;;;;;;36.50;18.67;;;-1.20;99.90;;;;;;5039208;28;20131;-75
2021/01/17 07:23:04;;;;;;;38.83;18.95;;;-1.10;99.90;;;;;;5029596;28;20120;-75
2021/01/17 07:25:32;;;;;;;38.38;19.08;;;-1.10;99.90;;;;;;5036087;28;20088;-74
2021/01/17 07:28:13;;;;;;;38.85;18.65;;;-1.10;99.90;;;;;;5042924;28;20048;-75
2021/01/17 07:30:43;;;;;;;41.50;19.95;;;-1.00;99.90;;;;;;5049687;28;20487;-75
2021/01/17 07:33:15;;;;;;;43.10;19.40;;;-1.00;99.90;;;;;;5059633;28;20360;-75
2021/01/17 07:35:43;;;;;;;38.88;19.15;;;-1.00;99.90;;;;;;5038908;28;20068;-75
2021/01/17 07:38:20;;;;;;;39.67;18.42;;;-1.10;99.90;;;;;;5042883;28;20155;-75
2021/01/17 07:41:01;;;;;;;41.75;19.52;;;-1.10;99.90;;;;;;5059773;28;20049;-71
2021/01/17 07:43:37;;;;;;;40.75;19.42;;;-1.00;99.90;;;;;;5029894;28;20441;-75
2021/01/17 07:46:18;;;;;;;50.20;23.17;;;-1.00;99.90;;;;;;5043477;28;20046;-75
2021/01/17 07:48:48;;;;;;;45.58;21.25;;;-1.00;99.90;;;;;;5011754;28;20046;-75
2021/01/17 07:51:16;;;;;;;47.10;22.65;;;-0.90;99.90;;;;;;5033337;28;20045;-73
2021/01/17 07:54:19;;;;;;;47.97;20.90;;;-0.90;99.90;;;;;;5041466;28;20046;-75
2021/01/17 07:56:47;;;;;;;39.20;19.58;;;-0.80;99.90;;;;;;5045913;28;20540;-75
2021/01/17 07:59:23;;;;;;;45.92;21.63;;;-0.80;99.90;;;;;;5041964;28;20048;-72
2021/01/17 08:01:50;;;;;;;39.13;18.25;;;-0.70;99.90;;;;;;5067145;28;20079;-75
2021/01/17 08:04:17;;;;;;;39.80;18.98;;;-0.70;99.90;;;;;;5046698;28;20102;-75
2021/01/17 08:06:46;;;;;;;47.35;20.50;;;-0.50;99.90;;;;;;5036810;28;20084;-75
2021/01/17 08:09:14;;;;;;;44.95;20.85;;;-0.40;99.90;;;;;;5030397;28;20411;-73
2021/01/17 08:11:44;;;;;;;47.38;20.23;;;-0.40;99.90;;;;;;5040291;28;20049;-70
2021/01/17 08:14:30;;;;;;;51.88;22.33;;;-0.40;99.90;;;;;;5042179;28;20139;-76
2021/01/17 08:17:06;;;;;;;42.60;20.42;;;-0.50;99.90;;;;;;5035303;28;20045;-74
2021/01/17 08:19:54;;;;;;;50.92;22.83;;;-0.50;99.90;;;;;;5029745;28;20049;-72
2021/01/17 08:22:23;;;;;;;57.10;26.60;;;-0.60;99.90;;;;;;5044562;28;20053;-72
2021/01/17 08:24:58;;;;;;;49.10;22.40;;;-0.50;99.90;;;;;;5032934;28;20092;-72
2021/01/17 08:27:31;;;;;;;44.13;20.70;;;-0.50;99.90;;;;;;5044343;28;20102;-72
2021/01/17 08:30:10;;;;;;;50.85;23.48;;;-0.50;99.90;;;;;;5036598;28;20483;-71
2021/01/17 08:32:38;;;;;;;50.10;22.83;;;-0.50;99.90;;;;;;5034442;28;20422;-71
2021/01/17 08:35:21;;;;;;;54.35;23.95;;;-0.60;99.90;;;;;;5032409;28;20434;-72
2021/01/17 08:37:51;;;;;;;45.58;21.52;;;-0.50;99.90;;;;;;5030645;28;20523;-76
2021/01/17 08:40:43;;;;;;;51.85;23.40;;;-0.50;99.90;;;;;;5032640;28;20473;-71
2021/01/17 08:43:12;;;;;;;43.03;20.98;;;-0.50;99.90;;;;;;5043076;28;20073;-72
2021/01/17 08:45:44;;;;;;;50.83;23.30;;;-0.50;99.90;;;;;;5035369;28;20538;-72
2021/01/17 08:48:16;;;;;;;45.72;23.13;;;-0.50;99.90;;;;;;5027639;28;20088;-73
2021/01/17 08:50:54;;;;;;;51.17;21.92;;;-0.50;99.90;;;;;;5035732;28;20084;-72
2021/01/17 08:53:31;;;;;;;45.90;20.20;;;-0.50;99.90;;;;;;5038219;28;20561;-71
2021/01/17 08:56:20;;;;;;;48.97;21.13;;;-0.50;99.90;;;;;;5032162;28;20080;-70
2021/01/17 08:58:57;;;;;;;50.65;23.38;;;-0.60;99.90;;;;;;5031008;28;20109;-71
2021/01/17 09:01:24;;;;;;;50.17;23.42;;;-0.50;99.90;;;;;;5037863;28;20052;-71
2021/01/17 09:03:53;;;;;;;50.50;21.35;;;-0.60;99.90;;;;;;5031837;28;20091;-71
2021/01/17 09:06:19;;;;;;;47.25;21.50;;;-0.70;99.90;;;;;;5039868;28;20152;-71
2021/01/17 09:08:48;;;;;;;49.90;21.17;;;-0.60;99.90;;;;;;5033654;28;20081;-71
2021/01/17 09:11:36;;;;;;;44.70;21.35;;;-0.60;99.90;;;;;;5034787;28;20049;-70
2021/01/17 09:14:19;;;;;;;49.00;22.45;;;-0.50;99.90;;;;;;5039170;28;20065;-71
2021/01/17 09:16:59;;;;;;;48.60;21.03;;;-0.40;99.90;;;;;;5033087;28;20168;-70
2021/01/17 09:19:31;;;;;;;43.50;18.65;;;-0.30;99.90;;;;;;5047138;28;20494;-71
2021/01/17 09:22:00;;;;;;;42.47;20.50;;;-0.30;99.90;;;;;;5032433;28;20107;-71
2021/01/17 09:24:29;;;;;;;51.58;23.20;;;-0.10;99.90;;;;;;5044520;28;20124;-71
2021/01/17 09:27:01;;;;;;;;;;;-0.20;99.90;;;;;;5016556;28;20080;-71
2021/01/17 09:29:28;;;;;;;46.78;19.08;;;-0.20;99.90;;;;;;5044542;28;19924;-71
2021/01/17 09:32:15;;;;;;;43.58;19.65;;;-0.10;99.90;;;;;;5042111;28;20484;-71
2021/01/17 09:34:46;;;;;;;47.67;21.10;;;0.00;99.90;;;;;;5040218;28;20044;-71
2021/01/17 09:37:18;;;;;;;43.60;19.65;;;0.20;99.90;;;;;;5035500;28;20128;-71
2021/01/17 09:39:51;;;;;;;51.75;20.23;;;0.40;99.90;;;;;;5035357;28;20083;-75
2021/01/17 09:42:23;;;;;;;39.70;18.33;;;0.40;99.90;;;;;;5046944;28;20153;-75
2021/01/17 09:45:03;;;;;;;42.97;18.77;;;0.20;99.90;;;;;;5045839;28;20068;-76
2021/01/17 09:47:30;;;;;;;52.95;22.80;;;0.10;99.90;;;;;;5036600;28;20060;-71
2021/01/17 09:50:17;;;;;;;38.55;17.55;;;0.20;99.90;;;;;;5034256;28;20056;-71
2021/01/17 09:52:43;;;;;;;33.92;15.65;;;0.20;99.90;;;;;;5037548;28;20049;-75
2021/01/17 09:55:11;;;;;;;45.00;18.80;;;0.40;99.90;;;;;;5054798;28;20574;-70
2021/01/17 09:57:39;;;;;;;39.22;18.00;;;0.60;99.90;;;;;;5030494;28;20084;-71
2021/01/17 10:00:20;;;;;;;35.42;16.88;;;0.60;99.90;;;;;;5045754;28;20376;-71
2021/01/17 10:02:47;;;;;;;34.80;16.33;;;0.80;99.90;;;;;;5031472;28;20061;-70
2021/01/17 10:05:24;;;;;;;37.17;17.58;;;0.90;99.90;;;;;;5048704;28;20092;-71
2021/01/17 10:07:58;;;;;;;36.60;16.73;;;0.90;99.90;;;;;;5032628;28;20045;-71
2021/01/17 10:10:25;;;;;;;29.48;15.02;;;1.00;99.90;;;;;;5037145;28;20274;-71
2021/01/17 10:12:51;;;;;;;29.17;14.75;;;0.80;99.90;;;;;;5030086;28;20565;-71
2021/01/17 10:15:18;;;;;;;32.42;15.70;;;0.80;99.90;;;;;;5046082;28;20144;-72
2021/01/17 10:17:46;;;;;;;49.63;20.45;;;0.90;99.90;;;;;;5032545;28;20472;-71
2021/01/17 10:20:24;;;;;;;44.42;19.13;;;0.90;99.90;;;;;;5039395;28;20056;-70
2021/01/17 10:22:58;;;;;;;38.83;17.95;;;0.80;99.90;;;;;;5036872;28;20081;-70
2021/01/17 10:25:24;;;;;;;37.78;20.02;;;0.70;99.90;;;;;;5033614;28;20045;-70
2021/01/17 10:28:02;;;;;;;43.80;17.90;;;0.80;99.90;;;;;;5043415;28;20140;-71
2021/01/17 10:30:31;;;;;;;41.13;18.58;;;0.80;99.90;;;;;;5037774;28;20136;-71
2021/01/17 10:33:10;;;;;;;30.65;16.00;;;0.90;99.90;;;;;;5044639;28;20046;-71
2021/01/17 10:35:39;;;;;;;40.05;18.13;;;1.00;99.90;;;;;;5037349;28;20056;-71
2021/01/17 10:38:08;;;;;;;31.67;13.38;;;1.00;99.90;;;;;;5036385;28;20518;-71
2021/01/17 10:40:36;;;;;;;27.15;13.52;;;1.00;99.90;;;;;;5032491;28;20041;-73
2021/01/17 10:43:07;;;;;;;34.50;15.50;;;0.90;99.90;;;;;;5053506;28;20037;-72
2021/01/17 10:45:36;;;;;;;36.75;15.65;;;1.00;99.90;;;;;;5038408;28;20045;-72
2021/01/17 10:48:11;;;;;;;32.42;15.77;;;1.10;99.90;;;;;;5030558;28;20128;-72
2021/01/17 10:50:52;;;;;;;32.58;14.70;;;1.10;99.90;;;;;;5031459;28;20484;-71
2021/01/17 10:53:33;;;;;;;32.63;15.27;;;1.10;99.90;;;;;;5031530;28;20405;-71
2021/01/17 10:56:00;;;;;;;27.90;14.73;;;1.10;99.90;;;;;;5039228;28;21330;-72
2021/01/17 10:58:44;;;;;;;25.55;11.82;;;1.10;99.90;;;;;;5036637;28;20400;-73
2021/01/17 11:01:12;;;;;;;27.00;13.45;;;1.10;99.90;;;;;;5041959;28;20123;-72
2021/01/17 11:03:41;;;;;;;26.50;12.38;;;1.10;99.90;;;;;;5029220;28;20390;-71
2021/01/17 11:06:21;;;;;;;20.10;11.32;;;1.10;99.90;;;;;;5047880;28;20046;-71
2021/01/17 11:08:57;;;;;;;22.58;11.07;;;1.10;99.90;;;;;;5043771;28;20053;-72
2021/01/17 11:11:32;;;;;;;21.98;11.50;;;1.20;99.90;;;;;;5046713;28;20059;-72
2021/01/17 11:14:05;;;;;;;25.80;12.60;;;1.10;99.90;;;;;;5041630;28;20133;-70
2021/01/17 11:16:48;;;;;;;21.45;11.77;;;1.00;99.90;;;;;;5042027;28;20564;-72
2021/01/17 11:19:16;;;;;;;21.50;11.55;;;1.20;99.90;;;;;;5033088;28;20099;-70
2021/01/17 11:21:45;;;;;;;22.77;11.70;;;1.30;99.90;;;;;;5036117;28;20060;-74
2021/01/17 11:24:12;;;;;;;27.92;13.93;;;1.30;99.90;;;;;;5047738;28;20044;-73
2021/01/17 11:26:39;;;;;;;25.20;13.05;;;1.40;99.90;;;;;;5028994;28;20049;-72
2021/01/17 11:29:14;;;;;;;22.30;10.65;;;1.40;99.90;;;;;;5031410;28;20068;-72
2021/01/17 11:31:45;;;;;;;27.05;13.75;;;1.30;99.90;;;;;;5034631;28;20048;-73
2021/01/17 11:34:13;;;;;;;24.65;12.77;;;1.40;99.90;;;;;;5036198;28;20076;-73
2021/01/17 11:36:40;;;;;;;22.52;12.48;;;1.60;99.90;;;;;;5037663;28;20514;-72
2021/01/17 11:39:06;;;;;;;23.40;12.38;;;1.80;99.90;;;;;;5045888;28;20076;-72
2021/01/17 11:41:33;;;;;;;25.20;13.43;;;1.90;99.90;;;;;;5046335;28;20515;-73
2021/01/17 11:44:21;;;;;;;24.40;12.75;;;1.90;99.90;;;;;;5036942;28;20061;-72
2021/01/17 11:46:49;;;;;;;23.50;12.18;;;2.10;99.90;;;;;;5052602;28;20525;-72
2021/01/17 11:49:24;;;;;;;29.83;13.73;;;2.00;99.90;;;;;;5036133;28;20049;-72
2021/01/17 11:51:51;;;;;;;26.05;12.75;;;2.10;99.90;;;;;;5033315;28;20459;-74
2021/01/17 11:54:25;;;;;;;24.05;12.63;;;2.10;99.90;;;;;;5040225;28;20081;-73
2021/01/17 11:57:06;;;;;;;24.77;13.05;;;2.10;99.90;;;;;;5029332;28;20077;-72
2021/01/17 11:59:34;;;;;;;24.85;12.90;;;2.00;99.90;;;;;;5013339;28;20053;-72
2021/01/17 12:02:23;;;;;;;20.73;11.38;;;1.90;99.90;;;;;;5043642;28;20049;-73
2021/01/17 12:05:00;;;;;;;23.02;11.45;;;1.80;99.90;;;;;;5044597;28;20072;-72
2021/01/17 12:07:27;;;;;;;20.88;12.52;;;1.80;99.90;;;;;;5038363;28;20073;-69
2021/01/17 12:10:10;;;;;;;19.80;11.15;;;1.80;99.90;;;;;;5035101;28;20434;-71
2021/01/17 12:12:38;;;;;;;25.63;13.25;;;1.80;99.90;;;;;;5032235;28;20041;-71
2021/01/17 12:15:07;;;;;;;18.77;10.63;;;1.90;99.90;;;;;;5029539;28;20547;-71
2021/01/17 12:17:34;;;;;;;20.35;11.48;;;2.00;99.90;;;;;;5044436;28;20049;-71
2021/01/17 12:20:01;;;;;;;20.98;11.20;;;1.90;99.90;;;;;;5029496;28;20068;-70
2021/01/17 12:22:28;;;;;;;19.92;11.00;;;2.20;99.90;;;;;;5030067;28;20452;-71
2021/01/17 12:24:55;;;;;;;20.52;11.73;;;2.20;99.90;;;;;;5044779;28;20130;-72
2021/01/17 12:27:21;;;;;;;21.15;12.50;;;2.40;99.90;;;;;;5043013;28;20064;-71
2021/01/17 12:29:48;;;;;;;24.17;13.20;;;2.40;99.90;;;;;;5034461;28;20131;-72
2021/01/17 12:32:15;;;;;;;21.23;11.50;;;2.40;99.90;;;;;;5049344;28;20049;-71
2021/01/17 12:34:41;;;;;;;20.13;11.80;;;2.40;99.90;;;;;;5045756;28;20054;-71
2021/01/17 12:37:08;;;;;;;20.92;12.00;;;2.50;99.90;;;;;;5033954;28;20458;-72
2021/01/17 12:39:34;;;;;;;25.13;14.05;;;2.70;99.90;;;;;;5047480;28;20456;-71
2021/01/17 12:42:02;;;;;;;22.58;12.55;;;2.60;99.90;;;;;;5052483;28;20111;-72
2021/01/17 12:44:28;;;;;;;24.67;13.27;;;2.50;99.90;;;;;;5052493;28;20144;-72
2021/01/17 12:46:54;;;;;;;17.17;9.95;;;2.50;99.90;;;;;;5051939;28;20049;-71
2021/01/17 12:49:21;;;;;;;24.35;13.27;;;2.40;99.90;;;;;;5052716;28;20072;-72
2021/01/17 12:51:47;;;;;;;22.52;13.25;;;2.30;99.90;;;;;;5037081;28;20041;-71